sensor_id;sensor_type;location;lat;lon;timestamp;P1;durP1;ratioP1;P2;durP2;ratioP2
20621;SDS011;10470;42.670;23.354;2024-01-07T00:01:37;14.60;;;9.67;;
20621;SDS011;10470;42.670;23.354;2024-01-07T00:04:03;14.27;;;10.23;;
20621;SDS011;10470;42.670;23.354;2024-01-07T00:06:28;17.33;;;9.80;;
20621;SDS011;10470;42.670;23.354;2024-01-07T00:08:54;12.50;;;9.23;;
20621;SDS011;10470;42.670;23.354;2024-01-07T00:11:19;13.50;;;9.47;;
20621;SDS011;10470;42.670;23.354;2024-01-07T00:13:45;15.60;;;8.90;;
20621;SDS011;10470;42.670;23.354;2024-01-07T00:16:10;12.80;;;9.13;;
20621;SDS011;10470;42.670;23.354;2024-01-07T00:18:35;14.63;;;8.60;;
20621;SDS011;10470;42.670;23.354;2024-01-07T00:21:00;13.00;;;9.03;;
20621;SDS011;10470;42.670;23.354;2024-01-07T00:23:26;17.90;;;9.63;;
20621;SDS011;10470;42.670;23.354;2024-01-07T00:25:51;18.17;;;11.80;;
20621;SDS011;10470;42.670;23.354;2024-01-07T00:28:16;21.77;;;13.57;;
20621;SDS011;10470;42.670;23.354;2024-01-07T00:30:42;18.67;;;13.43;;
20621;SDS011;10470;42.670;23.354;2024-01-07T00:33:07;19.17;;;12.20;;
20621;SDS011;10470;42.670;23.354;2024-01-07T00:35:32;20.93;;;12.50;;
20621;SDS011;10470;42.670;23.354;2024-01-07T00:37:58;22.87;;;13.97;;
20621;SDS011;10470;42.670;23.354;2024-01-07T00:40:23;22.67;;;14.20;;
20621;SDS011;10470;42.670;23.354;2024-01-07T00:42:48;26.17;;;15.53;;
20621;SDS011;10470;42.670;23.354;2024-01-07T00:45:14;26.33;;;16.03;;
20621;SDS011;10470;42.670;23.354;2024-01-07T00:47:39;30.00;;;17.00;;
20621;SDS011;10470;42.670;23.354;2024-01-07T00:50:05;25.57;;;16.07;;
20621;SDS011;10470;42.670;23.354;2024-01-07T00:52:30;25.93;;;16.10;;
20621;SDS011;10470;42.670;23.354;2024-01-07T00:54:55;27.60;;;16.63;;
20621;SDS011;10470;42.670;23.354;2024-01-07T00:57:21;31.03;;;18.80;;
20621;SDS011;10470;42.670;23.354;2024-01-07T00:59:47;29.37;;;19.80;;
20621;SDS011;10470;42.670;23.354;2024-01-07T01:02:12;33.80;;;20.10;;
20621;SDS011;10470;42.670;23.354;2024-01-07T01:04:40;31.40;;;19.50;;
20621;SDS011;10470;42.670;23.354;2024-01-07T01:07:05;33.10;;;19.30;;
20621;SDS011;10470;42.670;23.354;2024-01-07T01:09:32;33.13;;;21.07;;
20621;SDS011;10470;42.670;23.354;2024-01-07T01:11:58;38.63;;;21.77;;
20621;SDS011;10470;42.670;23.354;2024-01-07T01:14:23;33.23;;;20.90;;
20621;SDS011;10470;42.670;23.354;2024-01-07T01:16:48;36.23;;;19.90;;
20621;SDS011;10470;42.670;23.354;2024-01-07T01:19:13;35.17;;;20.43;;
20621;SDS011;10470;42.670;23.354;2024-01-07T01:21:39;31.87;;;20.87;;
20621;SDS011;10470;42.670;23.354;2024-01-07T01:24:04;34.23;;;20.33;;
20621;SDS011;10470;42.670;23.354;2024-01-07T01:26:29;32.20;;;20.13;;
20621;SDS011;10470;42.670;23.354;2024-01-07T01:28:55;33.03;;;20.43;;
20621;SDS011;10470;42.670;23.354;2024-01-07T01:31:20;30.57;;;20.53;;
20621;SDS011;10470;42.670;23.354;2024-01-07T01:33:45;33.10;;;20.60;;
20621;SDS011;10470;42.670;23.354;2024-01-07T01:36:11;32.30;;;19.87;;
20621;SDS011;10470;42.670;23.354;2024-01-07T01:38:36;34.97;;;20.10;;
20621;SDS011;10470;42.670;23.354;2024-01-07T01:41:01;31.27;;;19.53;;
20621;SDS011;10470;42.670;23.354;2024-01-07T01:43:27;37.17;;;20.87;;
20621;SDS011;10470;42.670;23.354;2024-01-07T01:45:53;33.57;;;19.70;;
20621;SDS011;10470;42.670;23.354;2024-01-07T01:48:19;31.80;;;19.47;;
20621;SDS011;10470;42.670;23.354;2024-01-07T01:50:45;33.70;;;19.97;;
20621;SDS011;10470;42.670;23.354;2024-01-07T01:53:10;30.27;;;18.87;;
20621;SDS011;10470;42.670;23.354;2024-01-07T01:55:35;27.80;;;18.00;;
20621;SDS011;10470;42.670;23.354;2024-01-07T01:58:01;36.17;;;20.50;;
20621;SDS011;10470;42.670;23.354;2024-01-07T02:00:29;29.13;;;18.10;;
20621;SDS011;10470;42.670;23.354;2024-01-07T02:02:54;28.67;;;18.17;;
20621;SDS011;10470;42.670;23.354;2024-01-07T02:05:19;26.30;;;16.63;;
20621;SDS011;10470;42.670;23.354;2024-01-07T02:07:45;31.00;;;18.77;;
20621;SDS011;10470;42.670;23.354;2024-01-07T02:10:10;27.57;;;16.80;;
20621;SDS011;10470;42.670;23.354;2024-01-07T02:12:35;27.23;;;17.27;;
20621;SDS011;10470;42.670;23.354;2024-01-07T02:15:00;29.93;;;18.07;;
20621;SDS011;10470;42.670;23.354;2024-01-07T02:17:26;28.27;;;18.20;;
20621;SDS011;10470;42.670;23.354;2024-01-07T02:19:51;28.07;;;15.33;;
20621;SDS011;10470;42.670;23.354;2024-01-07T02:22:17;25.63;;;15.97;;
20621;SDS011;10470;42.670;23.354;2024-01-07T02:24:44;22.73;;;14.43;;
20621;SDS011;10470;42.670;23.354;2024-01-07T02:27:09;19.23;;;13.13;;
20621;SDS011;10470;42.670;23.354;2024-01-07T02:29:34;24.30;;;15.10;;
20621;SDS011;10470;42.670;23.354;2024-01-07T02:31:59;18.83;;;13.37;;
20621;SDS011;10470;42.670;23.354;2024-01-07T02:34:25;23.07;;;12.97;;
20621;SDS011;10470;42.670;23.354;2024-01-07T02:36:50;22.97;;;14.30;;
20621;SDS011;10470;42.670;23.354;2024-01-07T02:39:15;20.53;;;13.70;;
20621;SDS011;10470;42.670;23.354;2024-01-07T02:41:42;21.93;;;14.47;;
20621;SDS011;10470;42.670;23.354;2024-01-07T02:44:07;22.50;;;14.43;;
20621;SDS011;10470;42.670;23.354;2024-01-07T02:46:33;23.77;;;13.83;;
20621;SDS011;10470;42.670;23.354;2024-01-07T02:48:58;20.43;;;12.50;;
20621;SDS011;10470;42.670;23.354;2024-01-07T02:51:23;20.20;;;13.73;;
20621;SDS011;10470;42.670;23.354;2024-01-07T02:53:48;21.93;;;14.10;;
20621;SDS011;10470;42.670;23.354;2024-01-07T02:56:14;23.80;;;14.20;;
20621;SDS011;10470;42.670;23.354;2024-01-07T02:58:39;28.07;;;14.43;;
20621;SDS011;10470;42.670;23.354;2024-01-07T03:01:07;21.00;;;14.20;;
20621;SDS011;10470;42.670;23.354;2024-01-07T03:03:33;19.73;;;13.40;;
20621;SDS011;10470;42.670;23.354;2024-01-07T03:05:58;14.47;;;9.93;;
20621;SDS011;10470;42.670;23.354;2024-01-07T03:08:24;16.43;;;8.93;;
20621;SDS011;10470;42.670;23.354;2024-01-07T03:10:49;9.73;;;7.40;;
20621;SDS011;10470;42.670;23.354;2024-01-07T03:13:14;7.17;;;4.70;;
20621;SDS011;10470;42.670;23.354;2024-01-07T03:15:40;7.57;;;5.07;;
20621;SDS011;10470;42.670;23.354;2024-01-07T03:18:05;7.63;;;4.80;;
20621;SDS011;10470;42.670;23.354;2024-01-07T03:20:30;8.33;;;4.93;;
20621;SDS011;10470;42.670;23.354;2024-01-07T03:22:55;7.40;;;4.67;;
20621;SDS011;10470;42.670;23.354;2024-01-07T03:25:21;5.07;;;4.10;;
20621;SDS011;10470;42.670;23.354;2024-01-07T03:27:46;7.53;;;4.60;;
20621;SDS011;10470;42.670;23.354;2024-01-07T03:30:11;5.90;;;4.00;;
20621;SDS011;10470;42.670;23.354;2024-01-07T03:32:36;5.23;;;4.40;;
20621;SDS011;10470;42.670;23.354;2024-01-07T03:35:02;5.97;;;4.23;;
20621;SDS011;10470;42.670;23.354;2024-01-07T03:37:27;6.17;;;4.23;;
20621;SDS011;10470;42.670;23.354;2024-01-07T03:39:53;5.33;;;4.20;;
20621;SDS011;10470;42.670;23.354;2024-01-07T03:42:18;15.73;;;9.20;;
20621;SDS011;10470;42.670;23.354;2024-01-07T03:44:44;23.40;;;12.47;;
20621;SDS011;10470;42.670;23.354;2024-01-07T03:47:10;18.00;;;11.83;;
20621;SDS011;10470;42.670;23.354;2024-01-07T03:49:38;18.53;;;13.40;;
20621;SDS011;10470;42.670;23.354;2024-01-07T03:52:06;16.37;;;12.30;;
20621;SDS011;10470;42.670;23.354;2024-01-07T03:54:32;18.87;;;12.73;;
20621;SDS011;10470;42.670;23.354;2024-01-07T03:56:57;20.50;;;13.20;;
20621;SDS011;10470;42.670;23.354;2024-01-07T03:59:22;18.77;;;12.57;;
20621;SDS011;10470;42.670;23.354;2024-01-07T04:01:48;21.20;;;12.90;;
20621;SDS011;10470;42.670;23.354;2024-01-07T04:04:13;16.90;;;11.80;;
20621;SDS011;10470;42.670;23.354;2024-01-07T04:06:38;17.20;;;11.10;;
20621;SDS011;10470;42.670;23.354;2024-01-07T04:09:04;17.93;;;10.37;;
20621;SDS011;10470;42.670;23.354;2024-01-07T04:11:29;17.40;;;10.97;;
20621;SDS011;10470;42.670;23.354;2024-01-07T04:13:54;15.03;;;9.77;;
20621;SDS011;10470;42.670;23.354;2024-01-07T04:16:20;15.60;;;9.77;;
20621;SDS011;10470;42.670;23.354;2024-01-07T04:18:48;16.10;;;9.33;;
20621;SDS011;10470;42.670;23.354;2024-01-07T04:21:13;15.43;;;9.60;;
20621;SDS011;10470;42.670;23.354;2024-01-07T04:23:39;12.97;;;9.50;;
20621;SDS011;10470;42.670;23.354;2024-01-07T04:26:05;15.77;;;10.40;;
20621;SDS011;10470;42.670;23.354;2024-01-07T04:28:30;12.40;;;9.00;;
20621;SDS011;10470;42.670;23.354;2024-01-07T04:30:56;14.47;;;9.57;;
20621;SDS011;10470;42.670;23.354;2024-01-07T04:33:21;13.33;;;9.07;;
20621;SDS011;10470;42.670;23.354;2024-01-07T04:35:47;13.07;;;9.73;;
20621;SDS011;10470;42.670;23.354;2024-01-07T04:38:12;14.07;;;9.97;;
20621;SDS011;10470;42.670;23.354;2024-01-07T04:40:38;16.90;;;9.50;;
20621;SDS011;10470;42.670;23.354;2024-01-07T04:43:03;12.50;;;8.47;;
20621;SDS011;10470;42.670;23.354;2024-01-07T04:45:28;14.87;;;8.70;;
20621;SDS011;10470;42.670;23.354;2024-01-07T04:47:54;13.50;;;9.07;;
20621;SDS011;10470;42.670;23.354;2024-01-07T04:50:19;14.37;;;8.43;;
20621;SDS011;10470;42.670;23.354;2024-01-07T04:52:47;14.67;;;9.10;;
20621;SDS011;10470;42.670;23.354;2024-01-07T04:55:13;13.23;;;8.37;;
20621;SDS011;10470;42.670;23.354;2024-01-07T04:57:38;12.83;;;8.47;;
20621;SDS011;10470;42.670;23.354;2024-01-07T05:00:04;9.80;;;7.97;;
20621;SDS011;10470;42.670;23.354;2024-01-07T05:02:29;13.23;;;9.00;;
20621;SDS011;10470;42.670;23.354;2024-01-07T05:04:54;10.30;;;8.23;;
20621;SDS011;10470;42.670;23.354;2024-01-07T05:07:20;13.20;;;8.17;;
20621;SDS011;10470;42.670;23.354;2024-01-07T05:09:45;11.60;;;8.90;;
20621;SDS011;10470;42.670;23.354;2024-01-07T05:12:10;17.43;;;11.67;;
20621;SDS011;10470;42.670;23.354;2024-01-07T05:14:36;18.77;;;12.87;;
20621;SDS011;10470;42.670;23.354;2024-01-07T05:17:02;19.93;;;15.67;;
20621;SDS011;10470;42.670;23.354;2024-01-07T05:19:27;25.13;;;16.23;;
20621;SDS011;10470;42.670;23.354;2024-01-07T05:21:53;19.53;;;14.20;;
20621;SDS011;10470;42.670;23.354;2024-01-07T05:24:18;19.63;;;13.87;;
20621;SDS011;10470;42.670;23.354;2024-01-07T05:26:44;15.73;;;12.30;;
20621;SDS011;10470;42.670;23.354;2024-01-07T05:29:09;17.30;;;12.17;;
20621;SDS011;10470;42.670;23.354;2024-01-07T05:31:35;17.53;;;12.47;;
20621;SDS011;10470;42.670;23.354;2024-01-07T05:34:00;14.73;;;12.00;;
20621;SDS011;10470;42.670;23.354;2024-01-07T05:36:25;18.03;;;13.20;;
20621;SDS011;10470;42.670;23.354;2024-01-07T05:38:52;20.77;;;13.23;;
20621;SDS011;10470;42.670;23.354;2024-01-07T05:41:17;20.10;;;13.23;;
20621;SDS011;10470;42.670;23.354;2024-01-07T05:43:42;21.47;;;13.80;;
20621;SDS011;10470;42.670;23.354;2024-01-07T05:46:08;16.97;;;13.37;;
20621;SDS011;10470;42.670;23.354;2024-01-07T05:48:43;20.07;;;12.87;;
20621;SDS011;10470;42.670;23.354;2024-01-07T05:51:09;18.67;;;13.20;;
20621;SDS011;10470;42.670;23.354;2024-01-07T05:53:34;18.40;;;12.30;;
20621;SDS011;10470;42.670;23.354;2024-01-07T05:56:00;18.60;;;13.23;;
20621;SDS011;10470;42.670;23.354;2024-01-07T05:58:25;22.23;;;13.03;;
20621;SDS011;10470;42.670;23.354;2024-01-07T06:00:50;18.77;;;11.90;;
20621;SDS011;10470;42.670;23.354;2024-01-07T06:03:15;17.70;;;12.10;;
20621;SDS011;10470;42.670;23.354;2024-01-07T06:05:41;14.77;;;11.40;;
20621;SDS011;10470;42.670;23.354;2024-01-07T06:08:06;19.00;;;11.50;;
20621;SDS011;10470;42.670;23.354;2024-01-07T06:10:31;16.60;;;12.23;;
20621;SDS011;10470;42.670;23.354;2024-01-07T06:12:57;16.73;;;12.10;;
20621;SDS011;10470;42.670;23.354;2024-01-07T06:15:22;18.13;;;12.60;;
20621;SDS011;10470;42.670;23.354;2024-01-07T06:17:47;30.47;;;20.27;;
20621;SDS011;10470;42.670;23.354;2024-01-07T06:20:13;21.83;;;13.37;;
20621;SDS011;10470;42.670;23.354;2024-01-07T06:22:39;18.77;;;12.87;;
20621;SDS011;10470;42.670;23.354;2024-01-07T06:25:04;16.07;;;12.20;;
20621;SDS011;10470;42.670;23.354;2024-01-07T06:27:29;15.17;;;11.97;;
20621;SDS011;10470;42.670;23.354;2024-01-07T06:29:55;14.67;;;11.70;;
20621;SDS011;10470;42.670;23.354;2024-01-07T06:32:20;19.60;;;14.20;;
20621;SDS011;10470;42.670;23.354;2024-01-07T06:34:46;22.17;;;13.00;;
20621;SDS011;10470;42.670;23.354;2024-01-07T06:37:11;21.70;;;14.87;;
20621;SDS011;10470;42.670;23.354;2024-01-07T06:39:37;18.67;;;12.87;;
20621;SDS011;10470;42.670;23.354;2024-01-07T06:42:03;19.53;;;13.47;;
20621;SDS011;10470;42.670;23.354;2024-01-07T06:44:28;20.07;;;14.23;;
20621;SDS011;10470;42.670;23.354;2024-01-07T06:46:53;19.67;;;14.47;;
20621;SDS011;10470;42.670;23.354;2024-01-07T06:49:18;24.33;;;16.10;;
20621;SDS011;10470;42.670;23.354;2024-01-07T06:51:44;19.73;;;13.83;;
20621;SDS011;10470;42.670;23.354;2024-01-07T06:54:09;19.43;;;14.17;;
20621;SDS011;10470;42.670;23.354;2024-01-07T06:56:34;25.60;;;14.90;;
20621;SDS011;10470;42.670;23.354;2024-01-07T06:58:59;25.00;;;15.33;;
20621;SDS011;10470;42.670;23.354;2024-01-07T07:01:25;19.40;;;13.53;;
20621;SDS011;10470;42.670;23.354;2024-01-07T07:03:50;20.13;;;13.93;;
20621;SDS011;10470;42.670;23.354;2024-01-07T07:06:16;23.23;;;14.97;;
20621;SDS011;10470;42.670;23.354;2024-01-07T07:08:41;21.37;;;15.73;;
20621;SDS011;10470;42.670;23.354;2024-01-07T07:11:06;22.17;;;13.43;;
20621;SDS011;10470;42.670;23.354;2024-01-07T07:13:32;16.97;;;11.47;;
20621;SDS011;10470;42.670;23.354;2024-01-07T07:15:57;18.77;;;11.43;;
20621;SDS011;10470;42.670;23.354;2024-01-07T07:18:22;18.30;;;12.77;;
20621;SDS011;10470;42.670;23.354;2024-01-07T07:20:49;15.33;;;10.97;;
20621;SDS011;10470;42.670;23.354;2024-01-07T07:23:14;21.87;;;12.00;;
20621;SDS011;10470;42.670;23.354;2024-01-07T07:25:39;13.53;;;10.37;;
20621;SDS011;10470;42.670;23.354;2024-01-07T07:28:05;16.77;;;10.53;;
20621;SDS011;10470;42.670;23.354;2024-01-07T07:30:30;14.73;;;10.53;;
20621;SDS011;10470;42.670;23.354;2024-01-07T07:32:55;17.80;;;12.37;;
20621;SDS011;10470;42.670;23.354;2024-01-07T07:35:21;17.20;;;11.50;;
20621;SDS011;10470;42.670;23.354;2024-01-07T07:37:46;32.73;;;19.10;;
20621;SDS011;10470;42.670;23.354;2024-01-07T07:40:12;15.80;;;11.13;;
20621;SDS011;10470;42.670;23.354;2024-01-07T07:42:38;13.73;;;10.37;;
20621;SDS011;10470;42.670;23.354;2024-01-07T07:45:03;11.57;;;9.03;;
20621;SDS011;10470;42.670;23.354;2024-01-07T07:47:29;14.17;;;11.00;;
20621;SDS011;10470;42.670;23.354;2024-01-07T07:49:54;15.80;;;10.63;;
20621;SDS011;10470;42.670;23.354;2024-01-07T07:52:20;15.93;;;11.47;;
20621;SDS011;10470;42.670;23.354;2024-01-07T07:54:48;14.37;;;10.00;;
20621;SDS011;10470;42.670;23.354;2024-01-07T07:57:14;14.30;;;11.20;;
20621;SDS011;10470;42.670;23.354;2024-01-07T07:59:39;14.90;;;11.17;;
20621;SDS011;10470;42.670;23.354;2024-01-07T08:02:05;30.63;;;21.40;;
20621;SDS011;10470;42.670;23.354;2024-01-07T08:04:30;61.30;;;39.13;;
20621;SDS011;10470;42.670;23.354;2024-01-07T08:06:55;19.33;;;11.37;;
20621;SDS011;10470;42.670;23.354;2024-01-07T08:09:21;14.80;;;9.83;;
20621;SDS011;10470;42.670;23.354;2024-01-07T08:11:47;16.57;;;9.87;;
20621;SDS011;10470;42.670;23.354;2024-01-07T08:14:12;13.50;;;9.73;;
20621;SDS011;10470;42.670;23.354;2024-01-07T08:16:37;15.93;;;10.17;;
20621;SDS011;10470;42.670;23.354;2024-01-07T08:19:02;14.00;;;10.27;;
20621;SDS011;10470;42.670;23.354;2024-01-07T08:21:28;14.27;;;10.83;;
20621;SDS011;10470;42.670;23.354;2024-01-07T08:23:53;15.40;;;10.97;;
20621;SDS011;10470;42.670;23.354;2024-01-07T08:26:19;15.73;;;11.37;;
20621;SDS011;10470;42.670;23.354;2024-01-07T08:28:44;15.83;;;10.37;;
20621;SDS011;10470;42.670;23.354;2024-01-07T08:31:10;16.27;;;11.07;;
20621;SDS011;10470;42.670;23.354;2024-01-07T08:33:35;19.93;;;13.13;;
20621;SDS011;10470;42.670;23.354;2024-01-07T08:36:00;15.80;;;11.63;;
20621;SDS011;10470;42.670;23.354;2024-01-07T08:38:25;17.27;;;12.57;;
20621;SDS011;10470;42.670;23.354;2024-01-07T08:40:51;20.53;;;14.70;;
20621;SDS011;10470;42.670;23.354;2024-01-07T08:43:16;21.20;;;15.23;;
20621;SDS011;10470;42.670;23.354;2024-01-07T08:45:41;26.10;;;18.47;;
20621;SDS011;10470;42.670;23.354;2024-01-07T08:48:07;22.57;;;17.40;;
20621;SDS011;10470;42.670;23.354;2024-01-07T08:50:32;28.80;;;20.20;;
20621;SDS011;10470;42.670;23.354;2024-01-07T08:52:57;26.97;;;19.30;;
20621;SDS011;10470;42.670;23.354;2024-01-07T08:55:23;24.63;;;18.33;;
20621;SDS011;10470;42.670;23.354;2024-01-07T08:57:48;24.27;;;18.50;;
20621;SDS011;10470;42.670;23.354;2024-01-07T09:00:14;23.00;;;18.07;;
20621;SDS011;10470;42.670;23.354;2024-01-07T09:02:39;23.00;;;17.60;;
20621;SDS011;10470;42.670;23.354;2024-01-07T09:05:05;31.50;;;19.23;;
20621;SDS011;10470;42.670;23.354;2024-01-07T09:07:31;29.57;;;20.40;;
20621;SDS011;10470;42.670;23.354;2024-01-07T09:09:57;24.10;;;17.70;;
20621;SDS011;10470;42.670;23.354;2024-01-07T09:12:24;20.20;;;14.40;;
20621;SDS011;10470;42.670;23.354;2024-01-07T09:14:50;19.20;;;14.03;;
20621;SDS011;10470;42.670;23.354;2024-01-07T09:17:15;21.03;;;14.50;;
20621;SDS011;10470;42.670;23.354;2024-01-07T09:19:42;22.23;;;15.90;;
20621;SDS011;10470;42.670;23.354;2024-01-07T09:22:07;19.00;;;13.23;;
20621;SDS011;10470;42.670;23.354;2024-01-07T09:24:32;17.50;;;12.13;;
20621;SDS011;10470;42.670;23.354;2024-01-07T09:26:58;18.57;;;13.00;;
20621;SDS011;10470;42.670;23.354;2024-01-07T09:29:23;18.43;;;12.87;;
20621;SDS011;10470;42.670;23.354;2024-01-07T09:31:48;18.60;;;13.30;;
20621;SDS011;10470;42.670;23.354;2024-01-07T09:34:14;18.10;;;13.07;;
20621;SDS011;10470;42.670;23.354;2024-01-07T09:36:39;17.50;;;11.13;;
20621;SDS011;10470;42.670;23.354;2024-01-07T09:39:05;14.20;;;9.53;;
20621;SDS011;10470;42.670;23.354;2024-01-07T09:41:31;13.60;;;9.17;;
20621;SDS011;10470;42.670;23.354;2024-01-07T09:43:57;14.97;;;8.57;;
20621;SDS011;10470;42.670;23.354;2024-01-07T09:46:24;11.53;;;8.03;;
20621;SDS011;10470;42.670;23.354;2024-01-07T09:48:49;29.63;;;18.20;;
20621;SDS011;10470;42.670;23.354;2024-01-07T09:51:14;17.93;;;11.97;;
20621;SDS011;10470;42.670;23.354;2024-01-07T09:53:40;14.97;;;10.93;;
20621;SDS011;10470;42.670;23.354;2024-01-07T09:56:21;11.43;;;6.70;;
20621;SDS011;10470;42.670;23.354;2024-01-07T09:58:48;9.30;;;6.97;;
20621;SDS011;10470;42.670;23.354;2024-01-07T10:01:15;10.20;;;7.47;;
20621;SDS011;10470;42.670;23.354;2024-01-07T10:03:40;11.37;;;8.07;;
20621;SDS011;10470;42.670;23.354;2024-01-07T10:06:06;9.87;;;8.00;;
20621;SDS011;10470;42.670;23.354;2024-01-07T10:08:32;16.03;;;10.87;;
20621;SDS011;10470;42.670;23.354;2024-01-07T10:10:57;15.93;;;11.00;;
20621;SDS011;10470;42.670;23.354;2024-01-07T10:13:23;13.83;;;9.87;;
20621;SDS011;10470;42.670;23.354;2024-01-07T10:15:48;12.73;;;8.83;;
20621;SDS011;10470;42.670;23.354;2024-01-07T10:18:13;12.50;;;7.90;;
20621;SDS011;10470;42.670;23.354;2024-01-07T10:20:39;12.77;;;7.87;;
20621;SDS011;10470;42.670;23.354;2024-01-07T10:23:04;9.30;;;7.60;;
20621;SDS011;10470;42.670;23.354;2024-01-07T10:25:32;9.83;;;7.37;;
20621;SDS011;10470;42.670;23.354;2024-01-07T10:28:01;8.37;;;6.03;;
20621;SDS011;10470;42.670;23.354;2024-01-07T10:30:27;8.73;;;6.10;;
20621;SDS011;10470;42.670;23.354;2024-01-07T10:32:56;9.87;;;7.20;;
20621;SDS011;10470;42.670;23.354;2024-01-07T10:35:22;11.93;;;7.60;;
20621;SDS011;10470;42.670;23.354;2024-01-07T10:37:52;9.83;;;7.30;;
20621;SDS011;10470;42.670;23.354;2024-01-07T10:40:17;11.10;;;7.60;;
20621;SDS011;10470;42.670;23.354;2024-01-07T10:42:43;11.83;;;8.20;;
20621;SDS011;10470;42.670;23.354;2024-01-07T10:45:09;31.93;;;13.60;;
20621;SDS011;10470;42.670;23.354;2024-01-07T10:47:35;14.33;;;11.20;;
20621;SDS011;10470;42.670;23.354;2024-01-07T10:50:01;17.07;;;11.10;;
20621;SDS011;10470;42.670;23.354;2024-01-07T10:52:27;19.30;;;11.77;;
20621;SDS011;10470;42.670;23.354;2024-01-07T10:54:53;12.50;;;9.57;;
20621;SDS011;10470;42.670;23.354;2024-01-07T10:59:46;14.07;;;10.30;;
20621;SDS011;10470;42.670;23.354;2024-01-07T11:02:12;55.40;;;20.00;;
20621;SDS011;10470;42.670;23.354;2024-01-07T11:07:28;13.77;;;9.00;;
20621;SDS011;10470;42.670;23.354;2024-01-07T11:12:25;11.23;;;7.70;;
20621;SDS011;10470;42.670;23.354;2024-01-07T11:14:50;8.90;;;6.43;;
20621;SDS011;10470;42.670;23.354;2024-01-07T11:20:04;7.50;;;5.40;;
20621;SDS011;10470;42.670;23.354;2024-01-07T11:22:29;7.73;;;4.87;;
20621;SDS011;10470;42.670;23.354;2024-01-07T11:24:55;6.57;;;5.13;;
20621;SDS011;10470;42.670;23.354;2024-01-07T11:27:24;9.77;;;5.40;;
20621;SDS011;10470;42.670;23.354;2024-01-07T11:29:53;6.23;;;4.47;;
20621;SDS011;10470;42.670;23.354;2024-01-07T11:32:20;6.13;;;4.63;;
20621;SDS011;10470;42.670;23.354;2024-01-07T11:34:46;6.70;;;4.50;;
20621;SDS011;10470;42.670;23.354;2024-01-07T11:37:14;6.57;;;4.53;;
20621;SDS011;10470;42.670;23.354;2024-01-07T11:39:43;11.07;;;5.43;;
20621;SDS011;10470;42.670;23.354;2024-01-07T11:42:09;8.43;;;4.83;;
20621;SDS011;10470;42.670;23.354;2024-01-07T11:44:34;7.00;;;4.40;;
20621;SDS011;10470;42.670;23.354;2024-01-07T11:47:02;9.33;;;5.27;;
20621;SDS011;10470;42.670;23.354;2024-01-07T11:49:27;14.93;;;6.20;;
20621;SDS011;10470;42.670;23.354;2024-01-07T11:51:53;9.73;;;5.80;;
20621;SDS011;10470;42.670;23.354;2024-01-07T11:54:19;6.67;;;4.30;;
20621;SDS011;10470;42.670;23.354;2024-01-07T11:56:44;29.67;;;10.17;;
20621;SDS011;10470;42.670;23.354;2024-01-07T11:59:09;29.50;;;11.70;;
20621;SDS011;10470;42.670;23.354;2024-01-07T12:01:38;12.17;;;6.77;;
20621;SDS011;10470;42.670;23.354;2024-01-07T12:04:03;7.33;;;4.30;;
20621;SDS011;10470;42.670;23.354;2024-01-07T12:06:29;5.10;;;4.30;;
20621;SDS011;10470;42.670;23.354;2024-01-07T12:08:54;6.97;;;4.00;;
20621;SDS011;10470;42.670;23.354;2024-01-07T12:11:19;6.37;;;4.17;;
20621;SDS011;10470;42.670;23.354;2024-01-07T12:13:45;30.90;;;10.57;;
20621;SDS011;10470;42.670;23.354;2024-01-07T12:16:11;5.97;;;3.77;;
20621;SDS011;10470;42.670;23.354;2024-01-07T12:18:37;9.20;;;5.30;;
20621;SDS011;10470;42.670;23.354;2024-01-07T12:21:03;7.17;;;4.57;;
20621;SDS011;10470;42.670;23.354;2024-01-07T12:23:28;9.40;;;4.57;;
20621;SDS011;10470;42.670;23.354;2024-01-07T12:25:53;17.63;;;7.67;;
20621;SDS011;10470;42.670;23.354;2024-01-07T12:28:20;57.90;;;17.57;;
20621;SDS011;10470;42.670;23.354;2024-01-07T12:30:49;15.77;;;6.80;;
20621;SDS011;10470;42.670;23.354;2024-01-07T12:33:21;38.40;;;11.67;;
20621;SDS011;10470;42.670;23.354;2024-01-07T12:35:47;77.37;;;20.83;;
20621;SDS011;10470;42.670;23.354;2024-01-07T12:38:15;11.03;;;5.70;;
20621;SDS011;10470;42.670;23.354;2024-01-07T12:40:41;59.10;;;16.50;;
20621;SDS011;10470;42.670;23.354;2024-01-07T12:43:06;53.93;;;16.13;;
20621;SDS011;10470;42.670;23.354;2024-01-07T12:45:32;35.07;;;13.00;;
20621;SDS011;10470;42.670;23.354;2024-01-07T12:48:00;17.57;;;8.60;;
20621;SDS011;10470;42.670;23.354;2024-01-07T12:50:28;35.63;;;11.43;;
20621;SDS011;10470;42.670;23.354;2024-01-07T12:52:55;15.73;;;7.90;;
20621;SDS011;10470;42.670;23.354;2024-01-07T12:55:23;17.77;;;8.97;;
20621;SDS011;10470;42.670;23.354;2024-01-07T12:57:48;7.73;;;6.07;;
20621;SDS011;10470;42.670;23.354;2024-01-07T13:00:14;9.30;;;5.57;;
20621;SDS011;10470;42.670;23.354;2024-01-07T13:02:39;11.47;;;6.63;;
20621;SDS011;10470;42.670;23.354;2024-01-07T13:05:05;13.90;;;7.07;;
20621;SDS011;10470;42.670;23.354;2024-01-07T13:07:32;15.43;;;8.13;;
20621;SDS011;10470;42.670;23.354;2024-01-07T13:09:57;16.93;;;9.33;;
20621;SDS011;10470;42.670;23.354;2024-01-07T13:12:22;12.13;;;7.70;;
20621;SDS011;10470;42.670;23.354;2024-01-07T13:14:48;10.93;;;7.70;;
20621;SDS011;10470;42.670;23.354;2024-01-07T13:17:14;24.47;;;12.03;;
20621;SDS011;10470;42.670;23.354;2024-01-07T13:19:40;11.60;;;6.83;;
20621;SDS011;10470;42.670;23.354;2024-01-07T13:22:05;10.53;;;6.33;;
20621;SDS011;10470;42.670;23.354;2024-01-07T13:24:30;9.57;;;6.33;;
20621;SDS011;10470;42.670;23.354;2024-01-07T13:26:56;9.97;;;5.90;;
20621;SDS011;10470;42.670;23.354;2024-01-07T13:29:21;9.97;;;7.10;;
20621;SDS011;10470;42.670;23.354;2024-01-07T13:31:46;14.53;;;7.70;;
20621;SDS011;10470;42.670;23.354;2024-01-07T13:34:12;11.47;;;7.37;;
20621;SDS011;10470;42.670;23.354;2024-01-07T13:36:39;14.17;;;7.90;;
20621;SDS011;10470;42.670;23.354;2024-01-07T13:39:05;10.40;;;6.93;;
20621;SDS011;10470;42.670;23.354;2024-01-07T13:41:32;9.30;;;6.97;;
20621;SDS011;10470;42.670;23.354;2024-01-07T13:43:58;13.20;;;8.20;;
20621;SDS011;10470;42.670;23.354;2024-01-07T13:46:23;11.87;;;6.90;;
20621;SDS011;10470;42.670;23.354;2024-01-07T13:48:50;13.70;;;7.17;;
20621;SDS011;10470;42.670;23.354;2024-01-07T13:51:15;14.83;;;6.90;;
20621;SDS011;10470;42.670;23.354;2024-01-07T13:53:40;12.93;;;6.87;;
20621;SDS011;10470;42.670;23.354;2024-01-07T13:56:06;9.03;;;5.77;;
20621;SDS011;10470;42.670;23.354;2024-01-07T13:58:32;14.77;;;7.57;;
20621;SDS011;10470;42.670;23.354;2024-01-07T14:00:57;11.00;;;7.03;;
20621;SDS011;10470;42.670;23.354;2024-01-07T14:03:22;10.27;;;6.13;;
20621;SDS011;10470;42.670;23.354;2024-01-07T14:05:48;11.50;;;7.40;;
20621;SDS011;10470;42.670;23.354;2024-01-07T14:08:13;10.37;;;6.73;;
20621;SDS011;10470;42.670;23.354;2024-01-07T14:10:38;15.63;;;7.30;;
20621;SDS011;10470;42.670;23.354;2024-01-07T14:13:04;171.10;;;55.37;;
20621;SDS011;10470;42.670;23.354;2024-01-07T14:15:29;64.83;;;25.47;;
20621;SDS011;10470;42.670;23.354;2024-01-07T14:17:54;20.43;;;10.00;;